Time;durP1;ratioP1;P1;durP2;ratioP2;P2;SDS_P1;SDS_P2;PMS_P1;PMS_P2;Temp;Humidity;BMP_temperature;BMP_pressure;BME280_temperature;BME280_humidity;BME280_pressure;Samples;Min_cycle;Max_cycle;Signal;HPM_P1;HPM_P2
2022/07/10 00:01:08;;;;;;;0.00;0.00;;;16.50;99.90;;;;;;5052293;28;20177;-53
2022/07/10 00:03:33;;;;;;;4.17;1.77;;;16.50;99.90;;;;;;5055239;28;20193;-53
2022/07/10 00:05:59;;;;;;;0.10;0.10;;;16.50;99.90;;;;;;5055172;28;20191;-60
2022/07/10 00:08:25;;;;;;;0.97;0.70;;;16.50;99.90;;;;;;5054951;28;20273;-52
2022/07/10 00:10:50;;;;;;;1.30;0.50;;;16.50;99.90;;;;;;5054904;28;20272;-54
2022/07/10 00:13:16;;;;;;;1.40;0.37;;;16.50;99.90;;;;;;5054236;28;20550;-54
2022/07/10 00:15:42;;;;;;;0.30;0.30;;;16.50;99.90;;;;;;5055228;28;20178;-52
2022/07/10 00:18:08;;;;;;;0.37;0.37;;;16.50;99.90;;;;;;5054864;28;20256;-53
2022/07/10 00:20:35;;;;;;;1.30;0.73;;;16.50;99.90;;;;;;5054966;28;20210;-55
2022/07/10 00:23:01;;;;;;;0.73;0.57;;;16.50;99.90;;;;;;5054751;28;20186;-57
2022/07/10 00:25:26;;;;;;;2.33;1.33;;;16.50;99.90;;;;;;5055062;28;20260;-52
2022/07/10 00:27:52;;;;;;;4.53;1.47;;;16.50;99.90;;;;;;5054688;28;20189;-54
2022/07/10 00:30:18;;;;;;;0.20;0.20;;;16.50;99.90;;;;;;5054472;28;20224;-64
2022/07/10 00:32:44;;;;;;;3.40;0.73;;;16.50;99.90;;;;;;5054484;28;20194;-54
2022/07/10 00:35:09;;;;;;;2.43;1.27;;;16.50;99.90;;;;;;5054226;28;20587;-55
2022/07/10 00:37:36;;;;;;;0.40;0.37;;;16.50;99.90;;;;;;5053247;28;20190;-58
2022/07/10 00:40:04;;;;;;;2.60;1.37;;;16.50;99.90;;;;;;5054058;28;20249;-56
2022/07/10 00:42:30;;;;;;;2.30;0.97;;;16.50;99.90;;;;;;5054557;28;20187;-55
2022/07/10 00:44:56;;;;;;;1.63;0.90;;;16.50;99.90;;;;;;5054384;28;20189;-56
2022/07/10 00:47:22;;;;;;;1.23;0.40;;;16.50;99.90;;;;;;5054007;28;20186;-54
2022/07/10 00:49:48;;;;;;;3.90;0.63;;;16.50;99.90;;;;;;5053439;28;20237;-55
2022/07/10 00:52:16;;;;;;;1.13;0.60;;;16.40;99.90;;;;;;5054294;28;20646;-53
2022/07/10 00:54:45;;;;;;;1.70;0.93;;;16.40;99.90;;;;;;5052784;28;20613;-54
2022/07/10 00:57:14;;;;;;;3.93;1.63;;;16.40;99.90;;;;;;5054117;28;20262;-59
2022/07/10 00:59:40;;;;;;;2.83;1.37;;;16.40;99.90;;;;;;5054335;28;20300;-55
2022/07/10 01:02:07;;;;;;;1.70;0.73;;;16.40;99.90;;;;;;5053988;28;20170;-55
2022/07/10 01:04:33;;;;;;;1.43;0.77;;;16.30;99.90;;;;;;5054239;28;20233;-54
2022/07/10 01:06:59;;;;;;;5.33;1.30;;;16.30;99.90;;;;;;5054229;28;20186;-55
2022/07/10 01:09:26;;;;;;;0.97;0.87;;;16.30;99.90;;;;;;5054079;28;20178;-54
2022/07/10 01:11:52;;;;;;;3.13;1.00;;;16.30;99.90;;;;;;5053989;28;20244;-57
2022/07/10 01:14:17;;;;;;;1.90;1.27;;;16.30;99.90;;;;;;5053821;28;20622;-57
2022/07/10 01:16:43;;;;;;;2.07;1.43;;;16.30;99.90;;;;;;5053971;28;20189;-56
2022/07/10 01:19:09;;;;;;;4.67;1.87;;;16.20;99.90;;;;;;5053614;28;20272;-54
2022/07/10 01:21:36;;;;;;;0.87;0.87;;;16.20;99.90;;;;;;5054047;28;20182;-53
2022/07/10 01:24:10;;;;;;;4.57;2.10;;;16.20;99.90;;;;;;5053673;28;20182;-55
2022/07/10 01:26:36;;;;;;;2.47;0.40;;;16.20;99.90;;;;;;5054182;28;20269;-56
2022/07/10 01:29:04;;;;;;;3.53;2.27;;;16.20;99.90;;;;;;5052692;28;20294;-52
2022/07/10 01:31:31;;;;;;;1.63;0.73;;;16.20;99.90;;;;;;5053960;28;20187;-53
2022/07/10 01:33:59;;;;;;;2.23;0.90;;;16.20;99.90;;;;;;5053514;28;20527;-52
2022/07/10 01:36:24;;;;;;;4.80;2.30;;;16.20;99.90;;;;;;5053386;28;20182;-54
2022/07/10 01:38:54;;;;;;;4.87;1.60;;;16.20;99.90;;;;;;5053355;28;20284;-54
2022/07/10 01:41:20;;;;;;;0.93;0.73;;;16.20;99.90;;;;;;5053609;28;20638;-55
2022/07/10 01:43:47;;;;;;;3.43;1.47;;;16.10;99.90;;;;;;5053376;28;20316;-53
2022/07/10 01:46:14;;;;;;;1.93;0.97;;;16.10;99.90;;;;;;5053190;28;20194;-54
2022/07/10 01:48:41;;;;;;;0.97;0.60;;;16.10;99.90;;;;;;5053292;28;20265;-53
2022/07/10 01:51:08;;;;;;;1.73;0.87;;;16.10;99.90;;;;;;5051926;28;20664;-56
2022/07/10 01:53:34;;;;;;;1.07;0.87;;;16.10;99.90;;;;;;5053536;28;20182;-56
2022/07/10 01:56:05;;;;;;;1.87;1.23;;;16.10;99.90;;;;;;5053554;28;20526;-52
2022/07/10 01:58:31;;;;;;;5.53;0.97;;;16.10;99.90;;;;;;5053282;28;20177;-57
2022/07/10 02:00:57;;;;;;;7.50;2.27;;;16.10;99.90;;;;;;5053345;28;20214;-55
2022/07/10 02:06:07;;;;;;;0.00;0.00;;;16.10;99.90;;;;;;5053257;28;20220;-50
2022/07/10 02:08:33;;;;;;;1.00;0.40;;;16.10;99.90;;;;;;5051935;28;20210;-52
2022/07/10 02:10:58;;;;;;;6.53;2.10;;;16.10;99.90;;;;;;5053064;28;20307;-51
2022/07/10 02:13:27;;;;;;;8.33;2.00;;;16.10;99.90;;;;;;5052878;28;20178;-57
2022/07/10 02:15:56;;;;;;;6.20;2.43;;;16.10;99.90;;;;;;5052728;28;20183;-50
2022/07/10 02:18:22;;;;;;;3.40;1.30;;;16.10;99.90;;;;;;5052684;28;20189;-54
2022/07/10 02:20:48;;;;;;;5.80;1.83;;;16.00;99.90;;;;;;5052653;28;20543;-53
2022/07/10 02:23:14;;;;;;;1.53;1.10;;;16.00;99.90;;;;;;5051957;28;20654;-54
2022/07/10 02:25:40;;;;;;;2.33;1.20;;;16.10;99.90;;;;;;5052952;28;20688;-55
2022/07/10 02:28:07;;;;;;;10.23;2.53;;;16.00;99.90;;;;;;5052738;28;20269;-50
2022/07/10 02:30:33;;;;;;;4.40;2.20;;;16.10;99.90;;;;;;5052618;28;20678;-53
2022/07/10 02:32:59;;;;;;;5.30;2.43;;;16.00;99.90;;;;;;5052734;28;20193;-55
2022/07/10 02:35:25;;;;;;;6.50;2.10;;;16.00;99.90;;;;;;5052299;28;20194;-58
2022/07/10 02:37:50;;;;;;;4.77;1.73;;;16.00;99.90;;;;;;5052635;28;20586;-55
2022/07/10 02:40:16;;;;;;;6.53;2.03;;;16.00;99.90;;;;;;5050447;28;20238;-54
2022/07/10 02:42:42;;;;;;;4.83;1.23;;;16.00;99.90;;;;;;5052388;28;20212;-54
2022/07/10 02:45:08;;;;;;;4.70;2.10;;;16.00;99.90;;;;;;5052062;28;20183;-64
2022/07/10 02:47:34;;;;;;;5.27;2.60;;;16.10;99.90;;;;;;5052435;28;20182;-53
2022/07/10 02:49:59;;;;;;;5.97;2.07;;;16.10;99.90;;;;;;5052238;28;20193;-54
2022/07/10 02:52:25;;;;;;;4.60;1.63;;;16.10;99.90;;;;;;5052121;28;20178;-57
2022/07/10 02:54:52;;;;;;;3.40;0.97;;;16.10;99.90;;;;;;5052192;28;20688;-55
2022/07/10 02:57:17;;;;;;;1.80;0.97;;;16.10;99.90;;;;;;5051846;28;20194;-55
2022/07/10 02:59:43;;;;;;;2.13;1.20;;;16.10;99.90;;;;;;5051849;28;20316;-53
2022/07/10 03:02:09;;;;;;;4.50;1.70;;;16.20;99.90;;;;;;5052002;28;20687;-65
2022/07/10 03:04:35;;;;;;;2.30;1.27;;;16.20;99.90;;;;;;5051919;28;20188;-54
2022/07/10 03:07:01;;;;;;;2.67;1.10;;;16.20;99.90;;;;;;5052144;28;20691;-54
2022/07/10 03:09:27;;;;;;;2.77;1.40;;;16.20;99.90;;;;;;5051893;28;20589;-54
2022/07/10 03:11:52;;;;;;;2.00;1.00;;;16.20;99.90;;;;;;5051813;28;20209;-54
2022/07/10 03:14:18;;;;;;;2.30;1.27;;;16.20;99.90;;;;;;5051347;28;20634;-52
2022/07/10 03:16:44;;;;;;;1.03;0.83;;;16.20;99.90;;;;;;5051734;28;20174;-53
2022/07/10 03:19:10;;;;;;;2.23;0.87;;;16.20;99.90;;;;;;5051331;28;20371;-58
2022/07/10 03:21:35;;;;;;;5.23;1.67;;;16.20;99.90;;;;;;5051585;28;20269;-52
2022/07/10 03:24:01;;;;;;;1.23;1.07;;;16.20;99.90;;;;;;5051548;28;20545;-68
2022/07/10 03:26:29;;;;;;;1.33;0.77;;;16.30;99.90;;;;;;5051269;28;20181;-69
2022/07/10 03:28:55;;;;;;;1.13;0.87;;;16.30;99.90;;;;;;5051409;28;20186;-67
2022/07/10 03:31:21;;;;;;;8.20;1.80;;;16.30;99.90;;;;;;5051145;28;20179;-67
2022/07/10 03:33:46;;;;;;;0.90;0.50;;;16.30;99.90;;;;;;5051265;28;20186;-68
2022/07/10 03:36:15;;;;;;;0.37;0.30;;;16.30;99.90;;;;;;5050586;28;20614;-68
2022/07/10 03:38:41;;;;;;;2.33;0.90;;;16.30;99.90;;;;;;5051168;28;20504;-66
2022/07/10 03:41:07;;;;;;;4.87;1.77;;;16.40;99.90;;;;;;5051291;28;20220;-68
2022/07/10 03:43:32;;;;;;;5.63;2.10;;;16.40;99.90;;;;;;5051135;28;20189;-67
2022/07/10 03:45:58;;;;;;;9.13;3.50;;;16.40;99.90;;;;;;5051388;28;20205;-66
2022/07/10 03:48:24;;;;;;;5.50;2.33;;;16.50;99.90;;;;;;5049659;28;20194;-68
2022/07/10 03:50:51;;;;;;;8.30;2.80;;;16.60;99.90;;;;;;5051078;28;20189;-54
2022/07/10 03:53:17;;;;;;;8.20;3.60;;;16.60;99.90;;;;;;5050762;28;20183;-59
2022/07/10 03:55:43;;;;;;;4.33;2.60;;;16.60;99.90;;;;;;5050794;28;20257;-60
2022/07/10 03:58:09;;;;;;;3.93;2.10;;;16.60;99.90;;;;;;5050523;28;20189;-69
2022/07/10 04:00:37;;;;;;;4.67;2.37;;;16.60;99.90;;;;;;5050789;28;20263;-59
2022/07/10 04:03:05;;;;;;;7.40;3.80;;;16.70;99.90;;;;;;5049399;28;20277;-60
2022/07/10 04:05:32;;;;;;;7.03;3.20;;;16.80;99.90;;;;;;5050230;28;20253;-59
2022/07/10 04:07:59;;;;;;;8.10;3.03;;;16.80;99.90;;;;;;5050778;28;20580;-59
2022/07/10 04:10:25;;;;;;;6.97;2.80;;;16.80;99.90;;;;;;5050833;28;20587;-59
2022/07/10 04:12:51;;;;;;;7.87;2.63;;;16.90;99.90;;;;;;5050878;28;20174;-59
2022/07/10 04:15:17;;;;;;;7.23;3.37;;;16.90;99.90;;;;;;5050966;28;20190;-59
2022/07/10 04:17:43;;;;;;;7.63;3.30;;;17.00;99.90;;;;;;5051058;28;20338;-61
2022/07/10 04:20:10;;;;;;;7.17;3.43;;;17.00;99.90;;;;;;5050602;28;20641;-62
2022/07/10 04:22:35;;;;;;;8.70;3.60;;;17.10;99.90;;;;;;5051051;28;20721;-59
2022/07/10 04:25:01;;;;;;;8.90;3.50;;;17.10;99.90;;;;;;5051041;28;20324;-59
2022/07/10 04:27:27;;;;;;;6.57;3.00;;;17.00;99.90;;;;;;5050437;28;20182;-59
2022/07/10 04:29:53;;;;;;;6.80;3.77;;;17.00;99.90;;;;;;5050937;28;20182;-58
2022/07/10 04:32:18;;;;;;;5.63;3.40;;;17.10;99.90;;;;;;5049703;28;20191;-60
2022/07/10 04:34:44;;;;;;;3.97;3.30;;;17.20;99.90;;;;;;5050859;28;20545;-60
2022/07/10 04:37:10;;;;;;;5.67;3.60;;;17.20;99.90;;;;;;5050573;28;20181;-59
2022/07/10 04:39:40;;;;;;;8.40;4.20;;;17.20;99.90;;;;;;5050667;28;20241;-58
2022/07/10 04:42:06;;;;;;;8.07;4.47;;;17.30;99.90;;;;;;5049589;28;20204;-60
2022/07/10 04:44:33;;;;;;;10.60;4.60;;;17.40;99.90;;;;;;5049679;28;20182;-59
2022/07/10 04:46:58;;;;;;;8.33;5.93;;;17.40;99.90;;;;;;5051933;28;20549;-59
2022/07/10 04:49:25;;;;;;;7.10;4.77;;;17.60;99.90;;;;;;5054341;28;20186;-59
2022/07/10 04:51:50;;;;;;;8.03;4.27;;;17.50;99.90;;;;;;5054598;28;20636;-60
2022/07/10 04:54:16;;;;;;;6.50;3.80;;;17.60;99.90;;;;;;5054380;28;20186;-58
2022/07/10 04:56:42;;;;;;;9.90;4.67;;;17.60;99.90;;;;;;5054422;28;20236;-59
2022/07/10 04:59:09;;;;;;;14.00;4.40;;;17.70;99.90;;;;;;5054427;28;20186;-58
2022/07/10 05:01:35;;;;;;;12.03;4.20;;;17.60;99.90;;;;;;5052718;28;20681;-58
2022/07/10 05:04:01;;;;;;;6.63;4.07;;;17.60;99.90;;;;;;5054233;28;20638;-59
2022/07/10 05:06:27;;;;;;;6.23;4.23;;;17.70;99.90;;;;;;5054333;28;20186;-58
2022/07/10 05:08:53;;;;;;;7.87;4.23;;;17.70;99.90;;;;;;5054248;28;20312;-59
2022/07/10 05:11:19;;;;;;;7.57;4.73;;;17.70;99.90;;;;;;5054328;28;20178;-59
2022/07/10 05:13:46;;;;;;;6.77;4.33;;;17.70;99.90;;;;;;5054361;28;20183;-60
2022/07/10 05:16:13;;;;;;;6.77;3.83;;;17.70;99.90;;;;;;5054206;28;20170;-60
2022/07/10 05:18:39;;;;;;;10.87;4.07;;;17.60;99.90;;;;;;5054215;28;20511;-60
2022/07/10 05:21:05;;;;;;;7.43;3.50;;;17.60;99.90;;;;;;5053893;28;20218;-60
2022/07/10 05:23:31;;;;;;;11.53;3.77;;;17.70;99.90;;;;;;5053565;28;20182;-60
2022/07/10 05:25:57;;;;;;;6.30;2.77;;;17.90;99.90;;;;;;5052625;28;20240;-60
2022/07/10 05:28:23;;;;;;;5.27;2.63;;;17.80;99.90;;;;;;5053769;28;20708;-61
2022/07/10 05:30:49;;;;;;;7.03;3.83;;;17.80;99.90;;;;;;5053615;28;20225;-60
2022/07/10 05:33:15;;;;;;;7.50;3.57;;;18.00;99.90;;;;;;5053504;28;20623;-59
2022/07/10 05:35:41;;;;;;;7.57;3.47;;;17.90;99.90;;;;;;5053920;28;20190;-62
2022/07/10 05:38:07;;;;;;;9.50;2.97;;;17.80;99.90;;;;;;5053506;28;20660;-58
2022/07/10 05:40:33;;;;;;;2.67;1.70;;;17.90;99.90;;;;;;5053028;28;20775;-59
2022/07/10 05:42:58;;;;;;;19.83;3.23;;;18.00;99.90;;;;;;5053627;28;20182;-59
2022/07/10 05:45:24;;;;;;;11.03;3.07;;;18.20;99.90;;;;;;5053370;28;20217;-58
2022/07/10 05:47:50;;;;;;;8.67;3.37;;;18.10;99.90;;;;;;5053232;28;20178;-58
2022/07/10 05:50:16;;;;;;;6.70;3.33;;;18.00;99.90;;;;;;5053355;28;20255;-60
2022/07/10 05:52:42;;;;;;;3.93;2.43;;;17.90;99.90;;;;;;5053174;28;20226;-60
2022/07/10 05:55:08;;;;;;;4.60;2.50;;;17.90;99.90;;;;;;5053282;28;20697;-60
2022/07/10 05:57:34;;;;;;;6.30;3.23;;;17.90;99.90;;;;;;5052802;28;20182;-59
2022/07/10 06:00:00;;;;;;;9.43;2.40;;;18.00;99.90;;;;;;5053260;28;20214;-58
2022/07/10 06:02:26;;;;;;;2.77;1.90;;;18.00;99.90;;;;;;5052732;28;20182;-60
2022/07/10 06:04:52;;;;;;;7.23;3.07;;;18.00;99.90;;;;;;5051844;28;20613;-59
2022/07/10 06:07:18;;;;;;;6.83;3.23;;;18.10;99.90;;;;;;5052611;28;20186;-60
2022/07/10 06:09:44;;;;;;;5.13;2.57;;;18.20;99.90;;;;;;5052742;28;20694;-59
2022/07/10 06:12:10;;;;;;;3.80;1.87;;;18.20;99.90;;;;;;5052916;28;20178;-60
2022/07/10 06:14:36;;;;;;;5.93;2.93;;;18.30;99.90;;;;;;5052991;28;20609;-59
2022/07/10 06:17:01;;;;;;;7.00;3.43;;;18.40;99.90;;;;;;5052950;28;20586;-59
2022/07/10 06:19:27;;;;;;;5.77;2.07;;;18.50;99.90;;;;;;5052108;28;20210;-59
2022/07/10 06:24:38;;;;;;;5.97;3.13;;;18.60;99.90;;;;;;5052581;28;20239;-60
2022/07/10 06:27:04;;;;;;;7.03;2.80;;;18.90;99.90;;;;;;5052572;28;20182;-61
2022/07/10 06:29:30;;;;;;;7.95;2.60;;;18.80;99.90;;;;;;5052366;28;20226;-59
2022/07/10 06:31:56;;;;;;;5.23;2.23;;;18.90;99.90;;;;;;5052274;28;20193;-59
2022/07/10 06:34:21;;;;;;;4.40;3.03;;;18.80;99.90;;;;;;5050497;28;20673;-60
2022/07/10 06:36:47;;;;;;;5.32;2.65;;;18.90;99.90;;;;;;5052490;28;20178;-60
2022/07/10 06:39:13;;;;;;;4.15;2.88;;;19.10;99.90;;;;;;5051917;28;20337;-59
2022/07/10 06:41:39;;;;;;;3.65;2.45;;;19.20;99.90;;;;;;5052293;28;20182;-63
2022/07/10 06:44:05;;;;;;;4.88;3.17;;;19.20;99.90;;;;;;5050950;28;20194;-60
2022/07/10 06:46:32;;;;;;;5.15;2.45;;;19.10;99.90;;;;;;5050472;28;20236;-58
2022/07/10 06:48:58;;;;;;;6.20;2.60;;;19.20;99.90;;;;;;5051900;28;20175;-59
2022/07/10 06:51:24;;;;;;;4.60;2.15;;;19.10;99.90;;;;;;5051829;28;20186;-60
2022/07/10 06:53:50;;;;;;;3.25;1.88;;;19.00;99.90;;;;;;5051902;28;20261;-59
2022/07/10 06:56:16;;;;;;;6.38;2.75;;;19.10;99.90;;;;;;5051816;28;20220;-59
2022/07/10 06:58:42;;;;;;;10.35;2.97;;;19.20;99.90;;;;;;5051365;28;20206;-59
2022/07/10 07:01:08;;;;;;;4.28;2.10;;;19.30;99.90;;;;;;5051248;28;20303;-59
2022/07/10 07:03:34;;;;;;;2.88;1.98;;;19.30;99.90;;;;;;5051246;28;20328;-59
2022/07/10 07:05:59;;;;;;;4.45;2.10;;;19.40;99.90;;;;;;5052218;28;20188;-60
2022/07/10 07:08:25;;;;;;;4.82;1.58;;;19.40;99.90;;;;;;5051446;28;20183;-60
2022/07/10 07:10:51;;;;;;;4.88;2.35;;;19.50;99.90;;;;;;5051153;28;20178;-59
2022/07/10 07:13:17;;;;;;;3.58;2.42;;;19.60;99.90;;;;;;5051218;28;20585;-62
2022/07/10 07:15:49;;;;;;;6.22;2.33;;;19.60;99.90;;;;;;5051487;28;20179;-60
2022/07/10 07:18:16;;;;;;;4.88;2.47;;;19.70;99.90;;;;;;5051591;28;20170;-59
2022/07/10 07:23:27;;;;;;;3.92;1.83;;;19.80;99.90;;;;;;5051754;28;20273;-59
2022/07/10 07:25:53;;;;;;;4.55;1.60;;;20.00;99.90;;;;;;5051071;28;20646;-59
2022/07/10 07:28:19;;;;;;;3.67;1.90;;;19.90;99.40;;;;;;5050596;28;20179;-59
2022/07/10 07:30:49;;;;;;;4.28;2.15;;;20.10;99.10;;;;;;5049507;28;20200;-60
2022/07/10 07:33:15;;;;;;;3.22;2.30;;;20.20;98.70;;;;;;5049189;28;20184;-59
2022/07/10 07:35:42;;;;;;;2.47;1.83;;;20.40;98.70;;;;;;5050495;28;20269;-60
2022/07/10 07:38:08;;;;;;;4.10;2.22;;;20.50;98.10;;;;;;5050658;28;20182;-59
2022/07/10 07:40:37;;;;;;;4.97;1.55;;;20.70;97.60;;;;;;5050663;28;20299;-60
2022/07/10 07:43:02;;;;;;;7.53;2.20;;;20.90;97.50;;;;;;5051037;28;20235;-60
2022/07/10 07:45:28;;;;;;;5.47;1.95;;;21.10;97.10;;;;;;5050299;28;20269;-60
2022/07/10 07:48:01;;;;;;;3.72;2.28;;;21.10;97.10;;;;;;5050814;28;20194;-60
2022/07/10 07:50:33;;;;;;;1.40;1.15;;;21.30;96.30;;;;;;5050670;28;20217;-61
2022/07/10 07:53:00;;;;;;;3.35;1.70;;;21.10;95.70;;;;;;5050786;28;20239;-59
2022/07/10 07:55:27;;;;;;;2.10;1.80;;;21.10;96.10;;;;;;5050072;28;20356;-59
2022/07/10 07:57:54;;;;;;;4.88;1.52;;;21.10;95.70;;;;;;5050510;28;20711;-60
2022/07/10 08:00:22;;;;;;;2.63;1.95;;;21.20;95.70;;;;;;5050514;28;20225;-59
2022/07/10 08:02:52;;;;;;;6.28;1.80;;;21.30;95.80;;;;;;5050609;28;20198;-60
2022/07/10 08:05:18;;;;;;;3.15;1.73;;;21.40;95.50;;;;;;5050996;28;20190;-63
2022/07/10 08:07:47;;;;;;;6.28;2.40;;;21.20;95.40;;;;;;5050673;28;20186;-59
2022/07/10 08:10:16;;;;;;;4.38;2.10;;;21.30;95.50;;;;;;5049147;28;20283;-60
2022/07/10 08:12:45;;;;;;;4.63;1.65;;;21.40;95.50;;;;;;5050358;28;20285;-60
2022/07/10 08:15:11;;;;;;;4.53;2.45;;;21.70;94.50;;;;;;5050136;28;20178;-59
2022/07/10 08:17:38;;;;;;;7.85;2.67;;;22.40;94.10;;;;;;5049334;28;20213;-60
2022/07/10 08:20:05;;;;;;;5.80;2.15;;;22.90;93.10;;;;;;5050449;28;20225;-59
2022/07/10 08:22:32;;;;;;;6.32;2.25;;;23.30;92.40;;;;;;5050864;28;20190;-59
2022/07/10 08:24:58;;;;;;;5.35;1.65;;;23.40;91.00;;;;;;5054498;28;20277;-62
2022/07/10 08:27:24;;;;;;;3.75;1.90;;;23.30;90.70;;;;;;5054412;28;20273;-59
2022/07/10 08:29:50;;;;;;;7.78;1.80;;;23.50;89.70;;;;;;5054452;28;20662;-60
2022/07/10 08:32:16;;;;;;;3.65;1.83;;;23.60;87.40;;;;;;5054347;28;20186;-59
2022/07/10 08:34:42;;;;;;;4.20;2.13;;;23.60;88.00;;;;;;5057181;28;20185;-59
2022/07/10 08:37:08;;;;;;;2.63;1.48;;;23.50;88.20;;;;;;5074434;28;20189;-60
2022/07/10 08:39:33;;;;;;;4.03;1.83;;;23.70;87.30;;;;;;5071874;28;20237;-60
2022/07/10 08:42:00;;;;;;;4.70;1.90;;;23.60;87.10;;;;;;5073990;28;20636;-61
2022/07/10 08:44:30;;;;;;;3.33;1.73;;;23.60;86.00;;;;;;5073799;28;20299;-59
2022/07/10 08:46:56;;;;;;;6.10;2.08;;;23.70;84.70;;;;;;5074042;28;20637;-60
2022/07/10 08:49:28;;;;;;;3.20;1.42;;;23.70;86.00;;;;;;5074458;28;20186;-62
2022/07/10 08:52:04;;;;;;;3.03;1.65;;;23.20;87.10;;;;;;5072669;28;20186;-60
2022/07/10 08:54:32;;;;;;;3.72;2.10;;;23.10;88.40;;;;;;5073782;28;20629;-60
2022/07/10 08:56:59;;;;;;;6.38;2.10;;;23.30;89.00;;;;;;5074095;28;20632;-59
2022/07/10 08:59:26;;;;;;;3.88;2.08;;;23.40;88.40;;;;;;5073681;28;20213;-60
2022/07/10 09:01:53;;;;;;;3.58;1.98;;;23.60;86.30;;;;;;5073872;28;20264;-59
2022/07/10 09:04:23;;;;;;;3.38;2.42;;;23.90;85.80;;;;;;5073630;28;20716;-59
2022/07/10 09:06:51;;;;;;;5.32;1.88;;;23.60;85.50;;;;;;5073701;28;20296;-60
2022/07/10 09:09:17;;;;;;;3.42;1.80;;;23.40;84.60;;;;;;5074338;28;20185;-59
2022/07/10 09:11:43;;;;;;;6.72;1.95;;;23.40;86.70;;;;;;5073609;28;20186;-60
2022/07/10 09:14:14;;;;;;;2.47;1.30;;;23.70;87.30;;;;;;5073764;28;20630;-60
2022/07/10 09:16:49;;;;;;;7.43;2.55;;;23.30;88.90;;;;;;5073498;28;20181;-60
2022/07/10 09:19:19;;;;;;;5.40;2.10;;;22.90;90.10;;;;;;5073401;28;20272;-63
2022/07/10 09:21:46;;;;;;;6.85;2.30;;;22.70;90.20;;;;;;5056590;28;20186;-65
2022/07/10 09:24:12;;;;;;;7.28;3.47;;;22.80;90.40;;;;;;5053688;28;20178;-60
2022/07/10 09:26:39;;;;;;;5.35;2.38;;;22.80;90.10;;;;;;5053545;28;20193;-59
2022/07/10 09:29:12;;;;;;;4.50;2.70;;;22.50;90.40;;;;;;5053420;28;20200;-60
2022/07/10 09:31:55;;;;;;;5.97;2.10;;;22.60;90.90;;;;;;5053621;28;20489;-61
2022/07/10 09:34:40;;;;;;;6.00;2.50;;;22.80;90.40;;;;;;5053533;28;20190;-60
2022/07/10 09:37:29;;;;;;;6.78;3.38;;;22.70;90.30;;;;;;5073466;28;20209;-60
2022/07/10 09:40:04;;;;;;;5.57;2.40;;;23.00;90.50;;;;;;5072778;28;20328;-59
2022/07/10 09:42:34;;;;;;;8.65;2.50;;;23.20;88.70;;;;;;5073142;28;20180;-59
2022/07/10 09:45:27;;;;;;;4.07;2.17;;;23.20;87.70;;;;;;5073401;28;20182;-59
2022/07/10 09:48:00;;;;;;;4.07;2.30;;;23.40;85.90;;;;;;5071440;28;20198;-60
2022/07/10 09:50:29;;;;;;;6.13;1.52;;;23.20;86.50;;;;;;5072834;28;20280;-62
2022/07/10 09:53:00;;;;;;;7.35;2.17;;;23.00;86.70;;;;;;5073106;28;20170;-60
2022/07/10 09:55:30;;;;;;;3.92;2.67;;;23.10;88.20;;;;;;5072248;28;20595;-63
2022/07/10 09:58:03;;;;;;;6.10;2.70;;;23.00;89.50;;;;;;5072564;28;20268;-64
2022/07/10 10:00:30;;;;;;;15.20;2.78;;;23.00;90.00;;;;;;5072192;28;20216;-59
2022/07/10 10:03:00;;;;;;;7.78;2.45;;;22.80;90.10;;;;;;5072484;28;20177;-60
2022/07/10 10:05:51;;;;;;;5.05;2.67;;;22.70;90.60;;;;;;5072369;28;20219;-64
2022/07/10 10:08:24;;;;;;;5.00;2.30;;;23.00;90.20;;;;;;5072691;28;20197;-61
2022/07/10 10:10:50;;;;;;;3.90;1.88;;;22.80;88.50;;;;;;5072101;28;20540;-61
2022/07/10 10:13:19;;;;;;;3.10;1.65;;;22.70;87.10;;;;;;5072088;28;20178;-59
2022/07/10 10:15:49;;;;;;;7.95;2.03;;;22.60;86.60;;;;;;5072055;28;20582;-59
2022/07/10 10:18:20;;;;;;;4.75;2.22;;;22.90;86.70;;;;;;5071359;28;20564;-60
2022/07/10 10:20:48;;;;;;;7.18;2.15;;;23.40;86.10;;;;;;5062064;28;20727;-61
2022/07/10 10:23:20;;;;;;;3.83;2.08;;;23.80;84.80;;;;;;5052181;28;20174;-60
2022/07/10 10:25:46;;;;;;;4.07;1.95;;;24.10;82.80;;;;;;5052144;28;20170;-59
2022/07/10 10:28:15;;;;;;;4.75;1.70;;;24.20;80.70;;;;;;5052748;28;20225;-65
2022/07/10 10:30:43;;;;;;;4.22;1.67;;;24.10;80.40;;;;;;5051984;28;20645;-61
2022/07/10 10:33:48;;;;;;;6.43;2.38;;;24.30;80.00;;;;;;5052411;28;20186;-66
2022/07/10 10:36:36;;;;;;;2.63;1.98;;;24.40;80.80;;;;;;5067697;28;20193;-62
2022/07/10 10:39:16;;;;;;;5.95;1.83;;;24.20;79.50;;;;;;5071940;28;20237;-62
2022/07/10 10:41:49;;;;;;;5.88;1.90;;;23.60;81.00;;;;;;5071411;28;20275;-62
2022/07/10 10:44:18;;;;;;;4.93;2.10;;;23.00;83.10;;;;;;5071212;28;20609;-61
2022/07/10 10:47:02;;;;;;;3.30;1.80;;;23.00;83.90;;;;;;5071656;28;20174;-62
2022/07/10 10:49:49;;;;;;;6.30;2.00;;;22.90;84.50;;;;;;5071946;28;20189;-73
2022/07/10 10:52:16;;;;;;;6.43;1.90;;;23.40;84.40;;;;;;5071687;28;20185;-60
2022/07/10 10:54:57;;;;;;;3.17;2.05;;;24.10;82.90;;;;;;5069927;28;20185;-58
2022/07/10 10:57:39;;;;;;;8.15;2.60;;;24.40;80.30;;;;;;5070192;28;20691;-60
2022/07/10 11:00:07;;;;;;;2.70;1.60;;;24.60;80.90;;;;;;5071186;28;20217;-59
2022/07/10 11:02:36;;;;;;;3.70;2.45;;;24.40;79.40;;;;;;5071323;28;20173;-61
2022/07/10 11:05:11;;;;;;;2.95;1.90;;;24.00;79.00;;;;;;5069606;28;20326;-60
2022/07/10 11:07:56;;;;;;;6.72;2.40;;;23.70;80.60;;;;;;5071429;28;20275;-59
2022/07/10 11:10:28;;;;;;;2.95;1.80;;;23.50;80.80;;;;;;5071597;28;20637;-59
2022/07/10 11:13:11;;;;;;;10.75;3.40;;;23.70;81.70;;;;;;5071950;28;20550;-61
2022/07/10 11:15:44;;;;;;;4.53;1.92;;;23.90;82.50;;;;;;5071111;28;20181;-61
2022/07/10 11:18:12;;;;;;;7.13;2.75;;;25.00;79.60;;;;;;5071726;28;20186;-60
2022/07/10 11:20:49;;;;;;;3.05;1.90;;;25.90;77.00;;;;;;5063526;28;20210;-58
2022/07/10 11:23:20;;;;;;;5.32;2.75;;;26.60;73.80;;;;;;5050943;28;20190;-61
2022/07/10 11:26:11;;;;;;;3.85;1.92;;;27.20;72.50;;;;;;5050941;28;20642;-59
2022/07/10 11:28:51;;;;;;;7.05;3.33;;;27.40;68.30;;;;;;5051303;28;20178;-58
2022/07/10 11:31:18;;;;;;;9.13;2.30;;;26.70;68.30;;;;;;5051158;28;20182;-61
2022/07/10 11:33:48;;;;;;;4.60;1.92;;;26.50;70.20;;;;;;5051359;28;20193;-59
2022/07/10 11:36:25;;;;;;;4.25;1.85;;;26.60;68.90;;;;;;5067250;28;20181;-60
2022/07/10 11:39:04;;;;;;;3.72;2.40;;;26.70;67.30;;;;;;5069838;28;20196;-59
2022/07/10 11:41:30;;;;;;;6.00;1.92;;;26.40;67.90;;;;;;5071160;28;20219;-63
2022/07/10 11:43:57;;;;;;;5.68;3.63;;;25.90;69.20;;;;;;5071234;28;20527;-60
2022/07/10 11:46:28;;;;;;;3.88;2.15;;;25.80;70.20;;;;;;5071024;28;20252;-61
2022/07/10 11:48:58;;;;;;;6.38;1.85;;;25.40;71.80;;;;;;5070784;28;20181;-60
2022/07/10 11:51:36;;;;;;;8.05;2.80;;;24.90;72.70;;;;;;5069036;28;20192;-59
2022/07/10 11:54:15;;;;;;;6.38;2.33;;;25.00;72.50;;;;;;5071079;28;20185;-59
2022/07/10 11:56:46;;;;;;;3.03;2.65;;;25.10;73.00;;;;;;5073135;28;20196;-61
2022/07/10 11:59:13;;;;;;;3.22;2.15;;;25.20;73.20;;;;;;5074824;28;20181;-59
2022/07/10 12:01:50;;;;;;;8.25;2.50;;;24.50;74.60;;;;;;5073393;28;20190;-59
2022/07/10 12:04:19;;;;;;;5.90;2.30;;;24.70;74.70;;;;;;5075262;28;20181;-60
2022/07/10 12:06:46;;;;;;;5.55;2.10;;;24.30;75.80;;;;;;5074596;28;20242;-59
2022/07/10 12:09:14;;;;;;;4.65;2.28;;;24.30;76.30;;;;;;5074966;28;20186;-59
2022/07/10 12:11:42;;;;;;;3.28;1.98;;;24.70;76.10;;;;;;5074476;28;20272;-59
2022/07/10 12:14:19;;;;;;;5.93;2.17;;;24.80;74.60;;;;;;5074864;28;20612;-59
2022/07/10 12:16:51;;;;;;;3.63;1.83;;;24.80;75.30;;;;;;5074448;28;20250;-59
2022/07/10 12:19:27;;;;;;;3.85;1.90;;;25.10;73.20;;;;;;5074841;28;20181;-61
2022/07/10 12:21:53;;;;;;;5.93;2.00;;;24.60;71.50;;;;;;5056784;28;20634;-60
2022/07/10 12:24:20;;;;;;;6.28;1.92;;;24.30;72.90;;;;;;5054932;28;20628;-59
2022/07/10 12:26:47;;;;;;;7.35;3.13;;;24.10;73.30;;;;;;5054339;28;20179;-58
2022/07/10 12:29:30;;;;;;;5.10;1.90;;;23.90;74.80;;;;;;5054520;28;20178;-59
2022/07/10 12:32:01;;;;;;;8.35;2.00;;;23.80;75.10;;;;;;5054156;28;20178;-59
2022/07/10 12:34:34;;;;;;;2.97;2.05;;;23.50;75.60;;;;;;5055274;28;20206;-63
2022/07/10 12:37:10;;;;;;;3.97;2.15;;;23.70;76.20;;;;;;5074124;28;20228;-61
2022/07/10 12:39:40;;;;;;;4.60;2.30;;;23.70;75.40;;;;;;5073564;28;20240;-60
2022/07/10 12:42:07;;;;;;;4.57;2.30;;;23.80;74.60;;;;;;5072753;28;20219;-60
2022/07/10 12:44:40;;;;;;;2.63;1.48;;;23.70;75.00;;;;;;5074424;28;20181;-60
2022/07/10 12:47:13;;;;;;;4.45;1.67;;;23.40;76.10;;;;;;5073573;28;20247;-59
2022/07/10 12:49:48;;;;;;;2.50;1.48;;;23.30;76.10;;;;;;5073904;28;20537;-59
2022/07/10 12:52:35;;;;;;;3.90;1.90;;;23.30;76.30;;;;;;5073891;28;20180;-59
2022/07/10 12:55:21;;;;;;;9.60;2.35;;;23.20;77.20;;;;;;5073962;28;20186;-60
2022/07/10 12:57:54;;;;;;;4.97;2.10;;;23.10;76.10;;;;;;5073686;28;20581;-59
2022/07/10 13:00:30;;;;;;;10.20;2.42;;;22.70;75.60;;;;;;5073588;28;20217;-59